Time;durP1;ratioP1;P1;durP2;ratioP2;P2;SDS_P1;SDS_P2;PMS_P1;PMS_P2;Temp;Humidity;BMP_temperature;BMP_pressure;BME280_temperature;BME280_humidity;BME280_pressure;Samples;Min_cycle;Max_cycle;Signal;HPM_P1;HPM_P2
2023/05/28 00:01:04;;;;;;;7.70;6.90;;;16.10;99.90;;;;;;5038528;28;20202;-61
2023/05/28 00:03:32;;;;;;;9.80;7.13;;;16.10;99.90;;;;;;5050348;28;20875;-61
2023/05/28 00:05:59;;;;;;;8.83;7.70;;;16.10;99.90;;;;;;5046455;28;20645;-61
2023/05/28 00:08:26;;;;;;;11.57;7.70;;;16.10;99.90;;;;;;5046665;28;20198;-62
2023/05/28 00:10:59;;;;;;;9.43;6.53;;;16.10;99.90;;;;;;5045969;28;20197;-61
2023/05/28 00:13:26;;;;;;;15.00;7.80;;;16.10;99.90;;;;;;5044513;28;20229;-61
2023/05/28 00:15:55;;;;;;;14.27;8.17;;;16.20;99.90;;;;;;5034832;28;20206;-61
2023/05/28 00:18:23;;;;;;;8.80;6.77;;;16.10;99.90;;;;;;5043418;28;20202;-61
2023/05/28 00:20:50;;;;;;;8.37;6.33;;;16.00;99.90;;;;;;5033669;28;20210;-61
2023/05/28 00:23:17;;;;;;;7.50;6.87;;;16.00;99.90;;;;;;5048864;28;20234;-61
2023/05/28 00:25:44;;;;;;;9.43;6.53;;;16.00;99.90;;;;;;5042419;28;20207;-61
2023/05/28 00:28:11;;;;;;;7.67;6.67;;;16.00;99.90;;;;;;5046058;28;20206;-61
2023/05/28 00:30:38;;;;;;;10.60;6.00;;;16.00;99.90;;;;;;5036206;28;20218;-61
2023/05/28 00:33:07;;;;;;;6.90;6.20;;;15.90;99.90;;;;;;5047108;28;20256;-61
2023/05/28 00:35:33;;;;;;;6.47;5.60;;;15.90;99.90;;;;;;5054471;28;20663;-61
2023/05/28 00:38:00;;;;;;;8.90;6.37;;;15.90;99.90;;;;;;5048153;28;20202;-62
2023/05/28 00:40:27;;;;;;;6.10;5.60;;;15.90;99.90;;;;;;5039248;28;20252;-61
2023/05/28 00:42:54;;;;;;;8.23;6.53;;;15.80;99.90;;;;;;5052041;28;20201;-61
2023/05/28 00:45:21;;;;;;;8.30;7.43;;;15.80;99.90;;;;;;5054642;28;20247;-61
2023/05/28 00:47:50;;;;;;;7.87;6.20;;;15.70;99.90;;;;;;5053490;28;20256;-61
2023/05/28 00:50:20;;;;;;;6.63;5.87;;;15.60;99.90;;;;;;5035706;28;20289;-61
2023/05/28 00:52:50;;;;;;;7.57;6.73;;;15.60;99.90;;;;;;5043441;28;20199;-61
2023/05/28 00:55:17;;;;;;;6.63;6.03;;;15.50;99.90;;;;;;5051458;28;20217;-61
2023/05/28 00:57:47;;;;;;;7.40;6.67;;;15.40;99.90;;;;;;5045737;28;20206;-61
2023/05/28 01:00:15;;;;;;;8.83;7.90;;;15.40;99.90;;;;;;5041888;28;20214;-61
2023/05/28 01:02:43;;;;;;;13.50;6.00;;;15.30;99.90;;;;;;5050420;28;20289;-61
2023/05/28 01:05:10;;;;;;;8.33;7.53;;;15.30;99.90;;;;;;5037891;28;20222;-61
2023/05/28 01:07:38;;;;;;;7.87;6.53;;;15.20;99.90;;;;;;5049696;28;20202;-61
2023/05/28 01:10:06;;;;;;;8.00;6.50;;;15.20;99.90;;;;;;5046391;28;20248;-61
2023/05/28 01:12:36;;;;;;;8.07;6.90;;;15.10;99.90;;;;;;5047455;28;20313;-61
2023/05/28 01:15:03;;;;;;;9.03;7.27;;;15.10;99.90;;;;;;5052948;28;20245;-61
2023/05/28 01:17:31;;;;;;;10.10;9.07;;;15.00;99.90;;;;;;5044543;28;20257;-61
2023/05/28 01:20:05;;;;;;;10.07;9.17;;;15.00;99.90;;;;;;5052306;28;20252;-61
2023/05/28 01:22:38;;;;;;;9.37;8.43;;;15.00;99.90;;;;;;5053508;28;20287;-61
2023/05/28 01:25:09;;;;;;;16.83;9.43;;;14.90;99.90;;;;;;5038487;28;20310;-61
2023/05/28 01:27:39;;;;;;;10.63;8.63;;;14.90;99.90;;;;;;5028027;28;20217;-61
2023/05/28 01:30:09;;;;;;;9.83;8.73;;;14.90;99.90;;;;;;5053135;28;20204;-61
2023/05/28 01:32:36;;;;;;;9.10;8.30;;;14.90;99.90;;;;;;5053395;28;20202;-61
2023/05/28 01:35:04;;;;;;;8.60;7.77;;;15.00;99.90;;;;;;5052506;28;20655;-61
2023/05/28 01:37:33;;;;;;;10.07;9.13;;;15.00;99.90;;;;;;5039550;28;20279;-61
2023/05/28 01:40:02;;;;;;;12.13;8.27;;;15.00;99.90;;;;;;5049735;28;20622;-61
2023/05/28 01:42:32;;;;;;;10.90;8.27;;;15.00;99.90;;;;;;5047791;28;20229;-61
2023/05/28 01:45:00;;;;;;;10.87;9.13;;;15.00;99.90;;;;;;5053113;28;20217;-61
2023/05/28 01:47:28;;;;;;;8.87;7.80;;;14.90;99.90;;;;;;5040609;28;20199;-61
2023/05/28 01:49:55;;;;;;;10.97;8.73;;;14.90;99.90;;;;;;5049053;28;20194;-61
2023/05/28 01:52:22;;;;;;;10.10;8.90;;;14.80;99.90;;;;;;5046638;28;20631;-61
2023/05/28 01:54:49;;;;;;;11.13;8.67;;;14.80;99.90;;;;;;5042207;28;20320;-61
2023/05/28 01:57:16;;;;;;;10.00;8.07;;;14.70;99.90;;;;;;5049508;28;20682;-61
2023/05/28 01:59:44;;;;;;;8.73;7.93;;;14.70;99.90;;;;;;5042375;28;20210;-61
2023/05/28 02:02:13;;;;;;;10.50;8.33;;;14.70;99.90;;;;;;5052349;28;20234;-61
2023/05/28 02:04:40;;;;;;;10.17;8.13;;;14.60;99.90;;;;;;5049592;28;20291;-61
2023/05/28 02:07:11;;;;;;;11.23;8.67;;;14.70;99.90;;;;;;5050275;28;20268;-61
2023/05/28 02:09:38;;;;;;;8.90;8.10;;;14.60;99.90;;;;;;5048989;28;20277;-60
2023/05/28 02:12:09;;;;;;;9.60;8.03;;;14.60;99.90;;;;;;5044717;28;20736;-61
2023/05/28 02:14:36;;;;;;;9.97;8.97;;;14.50;99.90;;;;;;5044073;28;20640;-62
2023/05/28 02:17:08;;;;;;;9.47;7.87;;;14.50;99.90;;;;;;5051454;28;20198;-61
2023/05/28 02:19:35;;;;;;;9.23;8.00;;;14.50;99.90;;;;;;5048022;28;20205;-61
2023/05/28 02:22:03;;;;;;;8.93;7.83;;;14.50;99.90;;;;;;5044566;28;20205;-61
2023/05/28 02:24:30;;;;;;;8.83;7.93;;;14.50;99.90;;;;;;5051617;28;20263;-61
2023/05/28 02:26:57;;;;;;;9.03;8.10;;;14.40;99.90;;;;;;5051017;28;20202;-61
2023/05/28 02:29:24;;;;;;;9.23;8.17;;;14.40;99.90;;;;;;5044617;28;20614;-61
2023/05/28 02:31:51;;;;;;;8.80;8.00;;;14.40;99.90;;;;;;5052544;28;20194;-60
2023/05/28 02:34:20;;;;;;;11.53;8.03;;;14.40;99.90;;;;;;5037580;28;20623;-61
2023/05/28 02:36:47;;;;;;;10.87;7.57;;;14.30;99.90;;;;;;5049457;28;20194;-61
2023/05/28 02:39:14;;;;;;;8.77;6.97;;;14.30;99.90;;;;;;5047241;28;20201;-60
2023/05/28 02:41:41;;;;;;;8.50;7.10;;;14.30;99.90;;;;;;5038207;28;20288;-61
2023/05/28 02:44:09;;;;;;;8.23;7.23;;;14.40;99.90;;;;;;5031981;28;20225;-61
2023/05/28 02:46:36;;;;;;;10.13;6.90;;;14.50;99.90;;;;;;5051974;28;20197;-61
2023/05/28 02:49:03;;;;;;;8.13;7.03;;;14.50;99.90;;;;;;5052238;28;20202;-61
2023/05/28 02:51:31;;;;;;;8.27;7.30;;;14.40;99.90;;;;;;5052114;28;20202;-61
2023/05/28 02:53:58;;;;;;;8.47;7.63;;;14.50;99.90;;;;;;5038190;28;20223;-61
2023/05/28 02:56:26;;;;;;;11.20;9.10;;;14.40;99.90;;;;;;5046016;28;20630;-61
2023/05/28 02:58:53;;;;;;;8.87;7.87;;;14.30;99.90;;;;;;5051983;28;20746;-62
2023/05/28 03:01:20;;;;;;;8.87;7.17;;;14.30;99.90;;;;;;5052099;28;20323;-60
2023/05/28 03:03:47;;;;;;;8.27;7.40;;;14.20;99.90;;;;;;5051684;28;20222;-62
2023/05/28 03:06:15;;;;;;;7.83;7.07;;;14.10;99.90;;;;;;5032563;28;20195;-61
2023/05/28 03:08:43;;;;;;;9.23;7.50;;;14.00;99.90;;;;;;5047563;28;20202;-61
2023/05/28 03:11:10;;;;;;;8.57;7.20;;;14.00;99.90;;;;;;5038599;28;20198;-61
2023/05/28 03:13:37;;;;;;;8.67;7.50;;;14.00;99.90;;;;;;5051511;28;20225;-61
2023/05/28 03:16:04;;;;;;;12.23;8.47;;;14.00;99.90;;;;;;5036238;28;20271;-61
2023/05/28 03:18:31;;;;;;;11.23;8.50;;;13.90;99.90;;;;;;5035454;28;20198;-61
2023/05/28 03:20:58;;;;;;;10.43;7.47;;;13.80;99.90;;;;;;5044795;28;20248;-61
2023/05/28 03:23:25;;;;;;;8.67;7.73;;;13.70;99.90;;;;;;5051136;28;20226;-60
2023/05/28 03:25:53;;;;;;;9.80;7.73;;;13.70;99.90;;;;;;5043244;28;20279;-61
2023/05/28 03:28:20;;;;;;;8.07;7.30;;;13.70;99.90;;;;;;5043749;28;20202;-61
2023/05/28 03:30:47;;;;;;;9.13;6.53;;;13.60;99.90;;;;;;5038468;28;20198;-60
2023/05/28 03:33:14;;;;;;;9.40;7.87;;;13.60;99.90;;;;;;5035020;28;20758;-60
2023/05/28 03:35:41;;;;;;;8.67;7.57;;;13.60;99.90;;;;;;5036584;28;20652;-61
2023/05/28 03:38:08;;;;;;;10.80;7.90;;;13.70;99.90;;;;;;5021885;28;20252;-61
2023/05/28 03:40:35;;;;;;;8.47;6.90;;;13.80;99.90;;;;;;5042028;28;20267;-61
2023/05/28 03:43:05;;;;;;;11.00;7.80;;;13.80;99.90;;;;;;5051261;28;20263;-61
2023/05/28 03:45:31;;;;;;;8.93;7.63;;;13.80;99.90;;;;;;5051587;28;20640;-61
2023/05/28 03:47:58;;;;;;;7.33;6.63;;;13.90;99.90;;;;;;5033614;28;20284;-61
2023/05/28 03:50:25;;;;;;;9.73;7.90;;;14.00;99.90;;;;;;5035233;28;20198;-60
2023/05/28 03:52:52;;;;;;;9.50;6.97;;;14.00;99.90;;;;;;5042007;28;20611;-61
2023/05/28 03:55:19;;;;;;;12.23;7.97;;;13.90;99.90;;;;;;5021970;28;20194;-61
2023/05/28 03:57:46;;;;;;;7.93;6.83;;;13.90;99.90;;;;;;5032532;28;20206;-61
2023/05/28 04:00:16;;;;;;;8.13;7.13;;;13.80;99.90;;;;;;5014067;28;20206;-61
2023/05/28 04:02:43;;;;;;;7.30;6.60;;;13.80;99.90;;;;;;5038507;28;20634;-61
2023/05/28 04:05:10;;;;;;;9.27;7.37;;;13.90;99.90;;;;;;5029199;28;20222;-60
2023/05/28 04:07:37;;;;;;;8.10;7.27;;;13.90;99.90;;;;;;5044917;28;20225;-61
2023/05/28 04:10:05;;;;;;;8.13;7.33;;;13.80;99.90;;;;;;5041451;28;20560;-61
2023/05/28 04:12:31;;;;;;;7.17;6.47;;;13.90;99.90;;;;;;5044259;28;20202;-61
2023/05/28 04:15:00;;;;;;;7.73;6.93;;;13.90;99.90;;;;;;5057387;22;20226;-56
2023/05/28 04:17:28;;;;;;;8.17;7.20;;;13.90;99.90;;;;;;5016494;28;20226;-54
2023/05/28 04:19:55;;;;;;;13.30;8.33;;;13.90;99.90;;;;;;5022289;28;20203;-54
2023/05/28 04:22:23;;;;;;;12.13;7.20;;;13.90;99.90;;;;;;5008766;28;20195;-54
2023/05/28 04:24:51;;;;;;;7.70;6.83;;;13.90;99.90;;;;;;5021158;28;20223;-54
2023/05/28 04:27:18;;;;;;;7.10;6.57;;;14.00;99.90;;;;;;5019612;28;20313;-54
2023/05/28 04:29:45;;;;;;;6.90;6.30;;;14.10;99.90;;;;;;5031231;28;20207;-54
2023/05/28 04:32:12;;;;;;;8.57;7.00;;;14.30;99.90;;;;;;4998493;28;20346;-54
2023/05/28 04:34:42;;;;;;;9.13;6.13;;;14.30;99.90;;;;;;4999475;28;20298;-54
2023/05/28 04:37:10;;;;;;;11.33;7.43;;;14.50;99.90;;;;;;5009141;28;20227;-54
2023/05/28 04:39:37;;;;;;;13.83;6.73;;;14.50;99.90;;;;;;5027111;28;20195;-54
2023/05/28 04:42:09;;;;;;;10.67;7.07;;;14.50;99.90;;;;;;5031281;28;20210;-54
2023/05/28 04:44:36;;;;;;;11.13;7.17;;;14.70;99.90;;;;;;5031076;28;20230;-54
2023/05/28 04:47:07;;;;;;;7.80;6.07;;;14.70;99.90;;;;;;5014471;28;20314;-54
2023/05/28 04:49:34;;;;;;;8.70;6.87;;;14.90;99.90;;;;;;5018316;28;20214;-54
2023/05/28 04:52:05;;;;;;;6.07;5.67;;;15.10;99.90;;;;;;5025265;28;20199;-54
2023/05/28 04:54:32;;;;;;;7.93;6.27;;;15.30;99.90;;;;;;5023647;28;20199;-54
2023/05/28 04:56:59;;;;;;;7.60;6.80;;;15.30;99.90;;;;;;5024194;28;20222;-54
2023/05/28 04:59:26;;;;;;;10.03;7.57;;;15.50;99.90;;;;;;5019075;28;20199;-54
2023/05/28 05:01:53;;;;;;;7.07;6.03;;;15.80;99.90;;;;;;5018419;28;20199;-54
2023/05/28 05:04:20;;;;;;;11.37;6.63;;;16.10;99.90;;;;;;5021989;28;20269;-54
2023/05/28 05:06:47;;;;;;;8.40;6.33;;;16.20;99.90;;;;;;5027210;28;20229;-54
2023/05/28 05:09:16;;;;;;;10.20;7.63;;;16.40;99.90;;;;;;5031102;28;20203;-54
2023/05/28 05:11:43;;;;;;;8.10;7.23;;;16.70;99.90;;;;;;5013717;28;20614;-54
2023/05/28 05:14:11;;;;;;;11.20;8.10;;;17.30;99.90;;;;;;5002877;28;20284;-54
2023/05/28 05:16:40;;;;;;;9.33;7.17;;;17.80;99.90;;;;;;5034218;28;20284;-54
2023/05/28 05:19:07;;;;;;;8.60;7.03;;;18.50;99.90;;;;;;5023526;28;20209;-54
2023/05/28 05:21:35;;;;;;;6.73;6.13;;;19.00;99.90;;;;;;5019489;28;20206;-54
2023/05/28 05:24:03;;;;;;;9.57;5.93;;;19.50;99.90;;;;;;5031581;28;20650;-54
2023/05/28 05:26:31;;;;;;;6.97;5.60;;;19.90;99.90;;;;;;5017492;28;20258;-54
2023/05/28 05:28:58;;;;;;;6.70;6.10;;;20.10;99.90;;;;;;5013372;28;20214;-54
2023/05/28 05:31:26;;;;;;;6.03;5.50;;;20.30;99.90;;;;;;5034428;28;20203;-54
2023/05/28 05:33:53;;;;;;;7.70;6.87;;;20.60;99.90;;;;;;5020173;28;20550;-54
2023/05/28 05:36:20;;;;;;;7.10;6.17;;;21.00;99.90;;;;;;5027652;28;20210;-55
2023/05/28 05:38:48;;;;;;;7.33;6.20;;;20.40;99.90;;;;;;5022448;28;20348;-55
2023/05/28 05:41:14;;;;;;;5.93;5.20;;;20.20;99.90;;;;;;5014359;28;20204;-55
2023/05/28 05:43:44;;;;;;;7.37;6.67;;;20.80;99.90;;;;;;5013622;28;20206;-55
2023/05/28 05:46:11;;;;;;;6.43;5.83;;;21.00;99.90;;;;;;5012884;28;20218;-54
2023/05/28 05:48:38;;;;;;;6.73;5.73;;;21.60;99.90;;;;;;5024162;28;20206;-55
2023/05/28 05:51:06;;;;;;;6.77;6.07;;;21.70;99.90;;;;;;5033062;28;20199;-55
2023/05/28 05:53:33;;;;;;;6.07;5.67;;;21.80;99.90;;;;;;5033680;28;20217;-55
2023/05/28 05:55:59;;;;;;;7.23;6.13;;;21.50;99.90;;;;;;5012352;28;20219;-56
2023/05/28 05:58:26;;;;;;;6.60;6.00;;;22.10;99.90;;;;;;5019445;28;20248;-55
2023/05/28 06:00:55;;;;;;;7.77;6.20;;;22.50;99.90;;;;;;5026421;28;20202;-54
2023/05/28 06:03:22;;;;;;;10.80;7.20;;;22.70;99.90;;;;;;5015853;28;20248;-55
2023/05/28 06:05:51;;;;;;;9.40;6.73;;;23.00;99.90;;;;;;5019587;28;20238;-55
2023/05/28 06:08:19;;;;;;;9.20;5.80;;;22.50;99.90;;;;;;5033203;28;20202;-55
2023/05/28 06:10:48;;;;;;;8.90;6.33;;;22.80;99.90;;;;;;5027502;28;20710;-55
2023/05/28 06:13:15;;;;;;;6.33;5.77;;;23.40;99.90;;;;;;5019735;28;20574;-55
2023/05/28 06:15:42;;;;;;;6.13;5.63;;;24.00;99.90;;;;;;5019868;28;20735;-55
2023/05/28 06:18:11;;;;;;;6.07;5.43;;;24.40;99.90;;;;;;5026556;28;20205;-55
2023/05/28 06:20:39;;;;;;;7.13;5.77;;;24.00;99.90;;;;;;5013313;28;20199;-56
2023/05/28 06:23:06;;;;;;;8.20;5.67;;;24.50;99.90;;;;;;5008064;28;20191;-56
2023/05/28 06:25:35;;;;;;;6.17;5.67;;;24.90;99.90;;;;;;5015433;28;20231;-55
2023/05/28 06:28:02;;;;;;;7.03;5.67;;;24.60;99.90;;;;;;5029335;28;20199;-55
2023/05/28 06:30:29;;;;;;;8.13;6.73;;;23.60;99.90;;;;;;5011021;28;20631;-54
2023/05/28 06:32:56;;;;;;;10.13;6.37;;;23.20;99.90;;;;;;5024539;28;20203;-54
2023/05/28 06:35:25;;;;;;;9.17;5.87;;;23.60;99.90;;;;;;5013802;28;20220;-54
2023/05/28 06:37:52;;;;;;;6.57;5.90;;;23.90;99.90;;;;;;5009588;28;20238;-55
2023/05/28 06:40:19;;;;;;;6.80;5.87;;;24.40;99.90;;;;;;5032801;28;20207;-54
2023/05/28 06:42:46;;;;;;;13.23;6.30;;;24.90;99.90;;;;;;5025615;28;20571;-54
2023/05/28 06:45:14;;;;;;;8.27;5.23;;;25.30;99.90;;;;;;5009590;28;20706;-55
2023/05/28 06:47:42;;;;;;;7.43;5.30;;;25.30;99.90;;;;;;5009848;28;20298;-55
2023/05/28 06:50:10;;;;;;;9.40;6.23;;;25.60;99.90;;;;;;5010164;28;20294;-54
2023/05/28 06:52:39;;;;;;;6.33;5.23;;;26.00;99.90;;;;;;5019443;28;20669;-55
2023/05/28 06:55:08;;;;;;;6.60;5.37;;;25.80;99.90;;;;;;5012697;28;20611;-54
2023/05/28 06:57:36;;;;;;;10.23;5.77;;;25.50;99.90;;;;;;5019565;28;20410;-54
2023/05/28 07:00:08;;;;;;;8.13;5.67;;;24.90;99.90;;;;;;5031846;28;20198;-54
2023/05/28 07:02:35;;;;;;;7.57;5.80;;;25.20;99.90;;;;;;5022213;28;20210;-54
2023/05/28 07:05:04;;;;;;;7.47;5.33;;;26.00;99.90;;;;;;5011017;28;20272;-54
2023/05/28 07:07:31;;;;;;;6.27;5.70;;;26.10;99.90;;;;;;4993035;28;20215;-54
2023/05/28 07:10:00;;;;;;;5.50;5.00;;;26.30;99.90;;;;;;5006144;28;20203;-54
2023/05/28 07:12:27;;;;;;;7.60;5.47;;;26.80;99.90;;;;;;5022042;28;20253;-54
2023/05/28 07:14:54;;;;;;;7.00;5.53;;;27.20;99.90;;;;;;5026917;28;20241;-54
2023/05/28 07:17:22;;;;;;;6.07;4.67;;;27.30;99.90;;;;;;5011372;28;20207;-54
2023/05/28 07:19:49;;;;;;;6.23;5.27;;;27.80;99.90;;;;;;5017743;28;20351;-54
2023/05/28 07:22:16;;;;;;;6.63;5.70;;;27.50;99.90;;;;;;5012295;28;20297;-54
2023/05/28 07:24:43;;;;;;;6.17;5.33;;;26.30;99.90;;;;;;4995893;28;20200;-54
2023/05/28 07:27:11;;;;;;;7.23;6.10;;;26.80;99.90;;;;;;4999733;28;20278;-54
2023/05/28 07:29:40;;;;;;;5.77;5.13;;;25.50;99.90;;;;;;5012549;28;20202;-54
2023/05/28 07:32:10;;;;;;;5.57;4.90;;;26.00;99.90;;;;;;5010721;28;20203;-54
2023/05/28 07:34:38;;;;;;;9.27;5.50;;;26.20;99.90;;;;;;5022412;28;20700;-54
2023/05/28 07:37:09;;;;;;;6.63;5.57;;;25.90;99.90;;;;;;5026841;28;20595;-54
2023/05/28 07:39:36;;;;;;;8.07;6.07;;;26.10;99.90;;;;;;4992639;28;20207;-54
2023/05/28 07:42:03;;;;;;;8.27;5.23;;;26.20;99.90;;;;;;4997773;28;20656;-54
2023/05/28 07:44:31;;;;;;;6.70;6.10;;;26.30;99.90;;;;;;5015336;28;20254;-54
2023/05/28 07:46:58;;;;;;;7.80;6.70;;;25.10;99.90;;;;;;5018282;28;20298;-54
2023/05/28 07:49:25;;;;;;;6.00;5.47;;;24.60;99.90;;;;;;5025279;28;20226;-54
2023/05/28 07:51:53;;;;;;;9.33;6.03;;;25.70;99.90;;;;;;5031669;28;20579;-54
2023/05/28 07:54:20;;;;;;;7.90;5.67;;;26.00;99.90;;;;;;5017302;28;20290;-54
2023/05/28 07:56:48;;;;;;;6.73;6.20;;;26.30;99.90;;;;;;5031122;28;20623;-54
2023/05/28 07:59:16;;;;;;;10.37;5.70;;;26.40;99.90;;;;;;5006087;28;20565;-54
2023/05/28 08:01:45;;;;;;;7.20;5.87;;;26.10;99.90;;;;;;5010982;28;20636;-54
2023/05/28 08:04:12;;;;;;;10.63;6.17;;;27.00;99.90;;;;;;5003403;28;20206;-57
2023/05/28 08:06:39;;;;;;;6.27;5.00;;;27.10;99.90;;;;;;5031325;28;20688;-54
2023/05/28 08:09:06;;;;;;;8.87;6.73;;;26.60;99.90;;;;;;5031550;28;20202;-54
2023/05/28 08:11:34;;;;;;;7.03;5.63;;;26.50;99.90;;;;;;5021711;28;20257;-54
2023/05/28 08:14:02;;;;;;;9.47;6.67;;;26.00;99.90;;;;;;5001350;28;20802;-54
2023/05/28 08:16:29;;;;;;;7.23;6.53;;;26.40;99.90;;;;;;5022471;28;20221;-54
2023/05/28 08:18:57;;;;;;;7.70;6.30;;;26.00;99.90;;;;;;5017484;28;20203;-54
2023/05/28 08:21:25;;;;;;;9.27;6.20;;;26.20;99.50;;;;;;5019624;28;20198;-54
2023/05/28 08:23:52;;;;;;;6.97;6.37;;;26.40;99.90;;;;;;5025057;28;20231;-54
2023/05/28 08:26:19;;;;;;;7.80;6.07;;;25.60;99.90;;;;;;5010776;28;20642;-54
2023/05/28 08:28:45;;;;;;;8.43;7.10;;;25.30;99.90;;;;;;5015864;28;20206;-54
2023/05/28 08:31:12;;;;;;;6.80;5.90;;;25.30;99.90;;;;;;5019102;28;20656;-54
2023/05/28 08:33:39;;;;;;;8.43;6.67;;;25.30;99.90;;;;;;5015986;28;20206;-54
2023/05/28 08:36:08;;;;;;;8.30;6.70;;;25.00;99.90;;;;;;5008345;28;20227;-54
2023/05/28 08:38:35;;;;;;;8.37;6.17;;;25.60;99.70;;;;;;5022987;28;20206;-54
2023/05/28 08:41:03;;;;;;;6.70;5.70;;;25.70;99.90;;;;;;5031386;28;20601;-54
2023/05/28 08:43:30;;;;;;;6.60;5.90;;;25.60;99.90;;;;;;5028187;28;20202;-54
2023/05/28 08:45:57;;;;;;;7.53;5.97;;;25.70;99.90;;;;;;5022242;28;20222;-54
2023/05/28 08:48:24;;;;;;;7.93;6.60;;;25.90;99.90;;;;;;5031325;28;20234;-54
2023/05/28 08:50:52;;;;;;;7.97;6.97;;;25.40;99.90;;;;;;5022477;28;20200;-54
2023/05/28 08:53:24;;;;;;;9.37;6.73;;;25.40;99.90;;;;;;5020254;28;20206;-54
2023/05/28 08:55:51;;;;;;;7.97;6.23;;;25.80;99.90;;;;;;5024271;28;20284;-54
2023/05/28 08:58:19;;;;;;;6.13;5.53;;;26.20;99.90;;;;;;5025109;28;20200;-54
2023/05/28 09:00:46;;;;;;;8.57;6.10;;;25.60;99.90;;;;;;5013979;28;20202;-54
2023/05/28 09:03:13;;;;;;;13.37;6.50;;;25.90;99.90;;;;;;5034317;28;20199;-54
2023/05/28 09:05:40;;;;;;;7.80;6.75;;;25.10;99.90;;;;;;5024910;28;20219;-54
2023/05/28 09:08:08;;;;;;;10.03;7.03;;;25.60;99.90;;;;;;5022683;28;20204;-54
2023/05/28 09:10:38;;;;;;;8.00;6.97;;;25.50;99.90;;;;;;5011920;28;20631;-54
2023/05/28 09:13:05;;;;;;;6.90;5.93;;;25.70;99.90;;;;;;5034185;28;20249;-54
2023/05/28 09:15:34;;;;;;;8.10;6.00;;;25.50;99.90;;;;;;5024830;28;20723;-54
2023/05/28 09:18:02;;;;;;;7.90;7.10;;;25.80;99.90;;;;;;5016930;28;20242;-54
2023/05/28 09:20:29;;;;;;;9.60;6.70;;;25.10;99.90;;;;;;5013881;28;20673;-54
2023/05/28 09:23:01;;;;;;;8.07;5.87;;;25.00;99.90;;;;;;4996247;28;20258;-54
2023/05/28 09:25:28;;;;;;;11.80;6.97;;;25.10;99.90;;;;;;5023425;28;20242;-54
2023/05/28 09:27:59;;;;;;;7.83;6.33;;;25.70;99.90;;;;;;5000085;28;20227;-54
2023/05/28 09:30:26;;;;;;;8.33;7.47;;;26.70;99.90;;;;;;5013052;28;20198;-54
2023/05/28 09:32:58;;;;;;;11.03;7.63;;;26.70;99.90;;;;;;5026015;28;20293;-54
2023/05/28 09:35:30;;;;;;;7.63;6.50;;;26.60;99.90;;;;;;5023958;28;20747;-54
2023/05/28 09:38:04;;;;;;;10.00;6.83;;;26.70;99.90;;;;;;5026247;28;20194;-54
2023/05/28 09:40:31;;;;;;;9.73;7.23;;;26.40;99.90;;;;;;5029901;28;20213;-54
2023/05/28 09:43:05;;;;;;;6.80;6.13;;;26.80;99.90;;;;;;5013207;28;20211;-54
2023/05/28 09:45:33;;;;;;;9.83;6.77;;;26.90;99.90;;;;;;5015392;28;20233;-54
2023/05/28 09:48:00;;;;;;;7.83;6.70;;;26.80;99.90;;;;;;5033939;28;20226;-54
2023/05/28 09:50:27;;;;;;;9.30;7.03;;;26.90;99.90;;;;;;5026079;28;20572;-54
2023/05/28 09:53:00;;;;;;;8.60;7.67;;;27.60;99.90;;;;;;5008249;28;20258;-54
2023/05/28 09:55:28;;;;;;;9.00;7.23;;;27.30;99.90;;;;;;5012987;28;20252;-54
2023/05/28 09:58:02;;;;;;;7.70;6.73;;;27.10;99.90;;;;;;5030077;28;20191;-53
2023/05/28 10:00:33;;;;;;;13.37;7.03;;;26.70;99.90;;;;;;5017755;28;20215;-54
2023/05/28 10:03:17;;;;;;;11.23;7.43;;;26.90;99.90;;;;;;5029070;28;20206;-54
2023/05/28 10:05:49;;;;;;;8.47;7.60;;;26.50;99.90;;;;;;5027227;28;20711;-54
2023/05/28 10:08:17;;;;;;;9.43;6.43;;;26.70;99.90;;;;;;5033643;28;20223;-54
2023/05/28 10:10:47;;;;;;;10.40;7.00;;;26.80;99.90;;;;;;5021833;28;20238;-54
2023/05/28 10:13:16;;;;;;;8.57;6.67;;;27.20;99.90;;;;;;5017255;28;20217;-54
2023/05/28 10:15:44;;;;;;;9.53;6.73;;;27.40;99.90;;;;;;5033209;28;20720;-54
2023/05/28 10:18:14;;;;;;;9.47;6.67;;;27.40;99.90;;;;;;5016770;28;20191;-54
2023/05/28 10:20:41;;;;;;;7.90;7.20;;;27.50;99.90;;;;;;5076752;22;20248;-59
2023/05/28 10:23:09;;;;;;;9.20;6.90;;;27.90;99.90;;;;;;5031064;28;20256;-59
2023/05/28 10:25:37;;;;;;;7.37;6.60;;;28.10;99.90;;;;;;5039954;28;20193;-59
2023/05/28 10:28:05;;;;;;;11.60;7.90;;;28.20;99.90;;;;;;5057616;28;20336;-59
2023/05/28 10:30:34;;;;;;;8.33;7.00;;;27.50;99.90;;;;;;5062000;28;20217;-59
2023/05/28 10:33:04;;;;;;;7.63;6.93;;;27.40;99.90;;;;;;5060305;28;20239;-59
2023/05/28 10:35:33;;;;;;;7.90;7.17;;;27.20;99.90;;;;;;5058266;28;20564;-59
2023/05/28 10:38:07;;;;;;;8.90;7.73;;;26.90;99.90;;;;;;5048939;28;20197;-58
2023/05/28 10:40:36;;;;;;;7.30;6.57;;;26.90;99.90;;;;;;5051794;28;20224;-59
2023/05/28 10:43:03;;;;;;;9.57;6.83;;;27.10;99.90;;;;;;5061282;28;20213;-59
2023/05/28 10:45:39;;;;;;;8.27;7.47;;;27.20;99.90;;;;;;5063018;28;20193;-59
2023/05/28 10:48:06;;;;;;;9.60;7.67;;;27.50;99.90;;;;;;5064100;28;20583;-59
2023/05/28 10:50:33;;;;;;;7.53;6.87;;;27.30;99.90;;;;;;5062468;28;20221;-59
2023/05/28 10:53:07;;;;;;;10.80;8.13;;;27.20;99.90;;;;;;5044545;28;20264;-59
2023/05/28 10:55:48;;;;;;;7.93;6.50;;;27.00;99.90;;;;;;5050606;28;20506;-56
2023/05/28 10:58:24;;;;;;;7.47;6.70;;;26.80;99.90;;;;;;5047823;28;20209;-64
2023/05/28 11:00:53;;;;;;;9.00;6.43;;;26.90;99.90;;;;;;5050602;28;20240;-63
2023/05/28 11:03:41;;;;;;;7.17;6.47;;;26.50;99.90;;;;;;5060637;28;20205;-63
2023/05/28 11:06:10;;;;;;;6.73;6.00;;;26.40;99.90;;;;;;5041224;28;20285;-64
2023/05/28 11:08:44;;;;;;;7.53;6.77;;;26.40;99.90;;;;;;5048135;28;20298;-63
2023/05/28 11:11:13;;;;;;;9.30;6.67;;;25.70;99.90;;;;;;5042955;28;20281;-65
2023/05/28 11:13:42;;;;;;;8.90;6.47;;;26.10;99.90;;;;;;5058768;28;20204;-65
2023/05/28 11:16:12;;;;;;;7.87;6.13;;;26.50;99.90;;;;;;5057854;28;20206;-63
2023/05/28 11:18:40;;;;;;;6.73;6.13;;;26.90;99.90;;;;;;5046004;28;20237;-65
2023/05/28 11:21:08;;;;;;;7.33;5.77;;;27.00;99.90;;;;;;5051174;28;20307;-65
2023/05/28 11:23:37;;;;;;;5.73;5.30;;;27.10;99.90;;;;;;5027649;28;20376;-66
2023/05/28 11:26:05;;;;;;;6.80;5.23;;;27.20;99.90;;;;;;5011418;28;20210;-66
2023/05/28 11:28:32;;;;;;;7.43;6.20;;;26.90;99.90;;;;;;5029905;28;20226;-66
2023/05/28 11:30:59;;;;;;;6.50;5.82;;;27.10;99.90;;;;;;5010868;28;20739;-65
2023/05/28 11:33:31;;;;;;;6.57;5.97;;;26.90;99.90;;;;;;5021128;28;20200;-60
2023/05/28 11:36:01;;;;;;;6.82;6.30;;;26.60;99.90;;;;;;5018340;28;20207;-59
2023/05/28 11:38:29;;;;;;;7.53;5.87;;;26.10;99.90;;;;;;5030512;28;20203;-60
2023/05/28 11:41:01;;;;;;;6.70;6.10;;;25.80;99.90;;;;;;5030711;28;20227;-60
2023/05/28 11:43:28;;;;;;;5.73;5.23;;;25.90;99.90;;;;;;5015556;28;20677;-61
2023/05/28 11:45:59;;;;;;;5.93;5.40;;;25.90;99.90;;;;;;5018170;28;20680;-61
2023/05/28 11:48:28;;;;;;;9.33;6.00;;;26.10;99.90;;;;;;5012567;28;20258;-60
2023/05/28 11:51:12;;;;;;;6.07;5.43;;;26.20;99.90;;;;;;5002581;28;20258;-53
2023/05/28 11:53:41;;;;;;;6.77;4.80;;;26.20;99.90;;;;;;5008102;28;20207;-61
2023/05/28 11:56:12;;;;;;;6.20;5.67;;;26.20;99.90;;;;;;5005463;28;20207;-60
2023/05/28 11:58:54;;;;;;;6.33;5.80;;;26.30;99.90;;;;;;5013496;28;20657;-53
2023/05/28 12:01:21;;;;;;;6.73;5.33;;;26.20;99.90;;;;;;5002565;28;20253;-53
2023/05/28 12:03:48;;;;;;;6.00;5.00;;;26.00;99.90;;;;;;5015135;28;20207;-53
2023/05/28 12:06:16;;;;;;;7.60;4.37;;;26.20;99.90;;;;;;5007158;28;20633;-54
2023/05/28 12:08:43;;;;;;;8.43;5.47;;;26.10;99.90;;;;;;5020003;28;20305;-61
2023/05/28 12:11:11;;;;;;;5.47;4.93;;;26.20;99.90;;;;;;5024260;28;20257;-61
2023/05/28 12:13:39;;;;;;;5.43;4.93;;;26.00;99.90;;;;;;5008957;28;20207;-61
2023/05/28 12:16:09;;;;;;;5.73;5.20;;;26.00;99.90;;;;;;5008515;28;20878;-62
2023/05/28 12:18:40;;;;;;;5.60;5.10;;;26.10;99.90;;;;;;5014850;28;20282;-64
2023/05/28 12:21:11;;;;;;;9.73;5.53;;;26.00;99.30;;;;;;5011781;28;20257;-62
2023/05/28 12:23:41;;;;;;;9.00;4.70;;;26.00;99.90;;;;;;5012798;28;20203;-61
2023/05/28 12:26:11;;;;;;;4.70;4.33;;;25.90;99.90;;;;;;5008925;28;20272;-62
2023/05/28 12:28:40;;;;;;;7.10;5.00;;;25.60;99.90;;;;;;5020398;28;20313;-62
2023/05/28 12:31:08;;;;;;;6.93;5.13;;;25.60;99.90;;;;;;5011419;28;20302;-61
2023/05/28 12:33:35;;;;;;;7.27;5.27;;;25.60;99.90;;;;;;5018613;28;20526;-62
2023/05/28 12:36:02;;;;;;;8.20;5.17;;;25.70;99.90;;;;;;5011001;28;20629;-63
2023/05/28 12:38:29;;;;;;;5.93;4.47;;;25.50;99.90;;;;;;5021286;28;20755;-62
2023/05/28 12:40:58;;;;;;;7.73;5.37;;;25.40;99.90;;;;;;5022947;28;20269;-61
2023/05/28 12:43:25;;;;;;;7.80;5.00;;;25.60;99.90;;;;;;5023834;28;20202;-62
2023/05/28 12:45:52;;;;;;;6.60;5.43;;;25.50;99.90;;;;;;5016124;28;20203;-62
2023/05/28 12:48:19;;;;;;;6.10;5.50;;;25.70;99.90;;;;;;5011766;28;20373;-61
2023/05/28 12:50:46;;;;;;;6.27;5.20;;;25.80;99.90;;;;;;5020284;28;20657;-61